• Join FlightAware (Why Join?)
  • Login
  • US Flag 
01:36PM EDT


 

Airport Tracker/Info


-or-


 

Live Flight TrackerFlight Track Log ✈ SWA2702 ✈ 06-Jul-2013 ✈ KPHX - KSEA

Flight Track Log - Related Links

Times and Time Zones

All times are in EDT time to prevent confusion due to time zone crossing. See the SWA2702 flight status page for this flight to view local times or setup timezone preferences in your user account.

Time Position Orientation Groundspeed Altitude Reporting Facility
EDT Latitude Longitude Course Direction KTS MPH feet Rate Location/Type
11:09AM 33.4333 -111.9833 20° North 165 190 2,400  Level Phoenix TRACON
11:09AM 33.4333 -111.9833 20° North 165 190 2,400 2,220 Level Phoenix TRACON
11:12AM 33.4656 -111.8153 77° East 282 325 7,600 2,220 Climbing Albuquerque Center
11:12AM 33.4656 -111.8153 77° East 282 325 7,600 3,180 Level Albuquerque Center
11:13AM 33.5122 -111.7389 54° Northeast 287 330 10,900 3,180 Climbing Albuquerque Center
11:13AM 33.5122 -111.7389 54° Northeast 287 330 10,900 2,460 Level Albuquerque Center
11:14AM 33.5947 -111.7117 15° North 313 360 13,500 2,460 Climbing Albuquerque Center
11:14AM 33.5947 -111.7117 15° North 313 360 13,500 1,920 Level Albuquerque Center
11:15AM 34.0829 -111.7191 20° North  Level FlightAware Approximate
11:15AM 34.0829 -111.7191 20° North  Level FlightAware Approximate
11:15AM 33.6933 -111.7158 358° North 356 410 15,500  Level Albuquerque Center
11:15AM 33.6933 -111.7158 358° North 356 410 15,500 3,240 Level Albuquerque Center
11:16AM 33.8183 -111.7197 359° North 374 430 18,900 3,240 Climbing Albuquerque Center
11:16AM 33.8183 -111.7197 359° North 374 430 18,900 2,100 Level Albuquerque Center
11:17AM 33.9292 -111.7231 359° North 389 448 21,100 2,100 Climbing Albuquerque Center
11:17AM 33.9292 -111.7231 359° North 389 448 21,100 1,980 Level Albuquerque Center
11:18AM 34.0539 -111.7253 359° North 415 478 23,200 1,980 Climbing Albuquerque Center
11:18AM 34.0539 -111.7253 359° North 415 478 23,200 1,800 Level Albuquerque Center
11:19AM 34.1706 -111.6819 17° North 437 503 25,100 1,800 Climbing Albuquerque Center
11:19AM 34.1706 -111.6819 17° North 437 503 25,100 1,200 Level Albuquerque Center
11:25AM 34.9475 -111.7933 353° North 483 556 32,600 1,320 Climbing Los Angeles Center
11:26AM 35.0781 -111.8397 344° North 483 556 34,900 1,740 Climbing Albuquerque Center
11:27AM 35.2022 -111.8819 344° North 478 550 36,200 1,080 Climbing Albuquerque Center
11:28AM 35.3264 -111.9253 344° North 471 542 37,200 840 Climbing Albuquerque Center
11:29AM 35.4519 -111.9692 344° North 472 543 38,000 360 Climbing Albuquerque Center
11:30AM 35.5878 -112.0583 332° Northwest 470 541 38,000  Level Albuquerque Center
11:31AM 35.6978 -112.1386 329° Northwest 464 534 38,000  Level Los Angeles Center
11:32AM 35.8094 -112.2186 330° Northwest 468 539 38,000  Level Los Angeles Center
11:33AM 35.9386 -112.3133 329° Northwest 466 536 38,000  Level Los Angeles Center
11:34AM 36.0511 -112.3939 330° Northwest 467 537 38,000  Level Los Angeles Center
11:35AM 36.1622 -112.4756 329° Northwest 465 535 38,000  Level Los Angeles Center
11:36AM 36.2717 -112.5567 329° Northwest 459 528 38,000  Level Los Angeles Center
11:37AM 36.3811 -112.6378 329° Northwest 457 526 38,000  Level Los Angeles Center
11:38AM 36.4897 -112.7172 330° Northwest 455 524 38,000  Level Los Angeles Center
11:39AM 36.5975 -112.7975 329° Northwest 452 520 38,000  Level Los Angeles Center
11:41AM 36.7417 -112.8594 341° North 458 527 38,000  Level Los Angeles Center
11:42AM 36.8639 -112.9078 342° North 460 529 38,000  Level Los Angeles Center
11:43AM 36.9847 -112.9578 342° North 458 527 38,000  Level Los Angeles Center
11:44AM 37.1300 -113.0172 342° North 457 526 38,000  Level Los Angeles Center
11:45AM 37.2414 -113.0906 332° Northwest 454 522 38,000  Level Los Angeles Center
11:46AM 37.3481 -113.1758 328° Northwest 450 518 38,000  Level Los Angeles Center
11:47AM 37.4564 -113.2603 328° Northwest 451 519 38,000  Level Los Angeles Center
11:48AM 37.5656 -113.3467 328° Northwest 457 526 38,000  Level Los Angeles Center
11:49AM 37.6972 -113.4511 328° Northwest 461 531 38,000  Level Los Angeles Center
11:50AM 37.8058 -113.5367 328° Northwest 457 526 38,000  Level Los Angeles Center
11:51AM 37.9133 -113.6225 328° Northwest 457 526 38,000  Level Los Angeles Center
11:52AM 38.0206 -113.7086 328° Northwest 454 522 38,000  Level Los Angeles Center
11:54AM 38.1711 -113.8286 328° Northwest 456 525 38,000  Level Salt Lake Center
11:55AM 38.2781 -113.9133 328° Northwest 453 521 38,000  Level Salt Lake Center
11:56AM 38.4061 -114.0172 328° Northwest 454 522 38,000  Level Salt Lake Center
11:57AM 38.5139 -114.1050 328° Northwest 458 527 38,000  Level Salt Lake Center
11:58AM 38.6206 -114.1925 327° Northwest 457 526 38,000  Level Salt Lake Center
11:59AM 38.7247 -114.2786 327° Northwest 451 519 38,000  Level Salt Lake Center
12:00PM 38.8314 -114.3647 328° Northwest 452 520 38,000  Level Salt Lake Center
12:01PM 38.9364 -114.4511 327° Northwest 449 517 38,000  Level Salt Lake Center
12:02PM 39.0639 -114.5581 327° Northwest 455 524 38,000  Level Salt Lake Center
12:03PM 39.1692 -114.6444 328° Northwest 450 518 38,000  Level Salt Lake Center
12:04PM 39.2758 -114.7386 326° Northwest 450 518 38,000  Level Salt Lake Center
12:05PM 39.3786 -114.8225 328° Northwest 455 524 38,000  Level Salt Lake Center
12:06PM 39.4994 -114.9200 328° Northwest 457 526 38,000  Level Salt Lake Center
12:07PM 39.5994 -115.0061 326° Northwest 453 521 38,000  Level Salt Lake Center
12:08PM 39.7172 -115.1058 327° Northwest 452 520 38,000  Level Salt Lake Center
12:09PM 39.8189 -115.1908 327° Northwest 453 521 38,000  Level Salt Lake Center
12:10PM 39.9336 -115.2911 326° Northwest 447 514 38,000  Level Salt Lake Center
12:11PM 40.0347 -115.3769 327° Northwest 451 519 38,000  Level Salt Lake Center
12:12PM 40.1522 -115.4767 327° Northwest 452 520 38,000  Level Salt Lake Center
12:13PM 40.2522 -115.5639 326° Northwest 452 520 38,000  Level Salt Lake Center
12:14PM 40.3700 -115.6644 327° Northwest 453 521 38,000  Level Salt Lake Center
12:15PM 40.4689 -115.7522 326° Northwest 451 519 38,000  Level Salt Lake Center
12:16PM 40.5822 -115.8525 326° Northwest 446 513 38,000  Level Salt Lake Center
12:17PM 40.6817 -115.9411 326° Northwest 452 520 38,000  Level Salt Lake Center
12:18PM 40.8006 -116.0428 327° Northwest 457 526 38,000  Level Salt Lake Center
12:19PM 40.9011 -116.1314 326° Northwest 456 525 38,000  Level Salt Lake Center
12:20PM 40.9972 -116.2197 325° Northwest 447 514 38,000  Level Salt Lake Center
12:21PM 41.1158 -116.3264 326° Northwest 458 527 38,000  Level Salt Lake Center
12:22PM 41.2150 -116.4144 326° Northwest 455 524 38,000  Level Salt Lake Center
12:24PM 41.3286 -116.5181 326° Northwest 446 513 38,000  Level Salt Lake Center
12:25PM 41.4275 -116.6058 326° Northwest 446 513 38,000  Level Salt Lake Center
12:26PM 41.5414 -116.7089 326° Northwest 445 512 38,000  Level Salt Lake Center
12:27PM 41.6383 -116.7983 325° Northwest 443 510 38,000  Level Salt Lake Center
12:28PM 41.7522 -116.9006 326° Northwest 442 509 38,000  Level Salt Lake Center
12:29PM 41.8497 -116.9897 326° Northwest 443 510 38,000  Level Salt Lake Center
12:30PM 41.9625 -117.0922 326° Northwest 439 505 38,000  Level Salt Lake Center
12:31PM 42.0586 -117.1811 326° Northwest 439 505 38,000 -420 Level Salt Lake Center
12:32PM 42.1708 -117.2867 325° Northwest 440 506 37,200 -900 Descending Salt Lake Center
12:33PM 42.2772 -117.3861 325° Northwest 441 507 36,200 -600 Descending Salt Lake Center
12:34PM 42.3733 -117.4769 325° Northwest 440 506 36,000 -120 Descending Salt Lake Center
12:35PM 42.4856 -117.5822 325° Northwest 438 504 36,000  Level Salt Lake Center
12:36PM 42.5819 -117.6725 325° Northwest 438 504 36,000  Level Salt Lake Center
12:37PM 42.6764 -117.7631 325° Northwest 435 501 36,000  Level Salt Lake Center
12:38PM 42.7872 -117.8678 325° Northwest 433 498 36,000  Level Salt Lake Center
12:39PM 42.8819 -117.9594 325° Northwest 435 501 36,000  Level Salt Lake Center
12:40PM 42.9919 -118.0642 325° Northwest 431 496 36,000  Level Salt Lake Center
12:41PM 43.0858 -118.1544 325° Northwest 430 495 36,000  Level Salt Lake Center
12:42PM 43.1881 -118.2525 325° Northwest 425 489 36,000  Level Salt Lake Center
12:43PM 43.2833 -118.3453 325° Northwest 423 487 36,000  Level Salt Lake Center
12:44PM 43.3797 -118.4386 325° Northwest 424 488 36,000  Level Salt Lake Center
12:45PM 43.4764 -118.5339 324° Northwest 427 491 36,000  Level Salt Lake Center
12:46PM 43.5919 -118.6467 325° Northwest 426 490 36,000  Level Salt Lake Center
12:47PM 43.6886 -118.7425 324° Northwest 428 493 36,000  Level Salt Lake Center
12:48PM 43.7861 -118.8364 325° Northwest 429 494 36,000  Level Salt Lake Center
12:49PM 43.9069 -118.9061 337° Northwest 437 503 36,000  Level Seattle Center
12:50PM 44.0114 -118.9622 339° North 437 503 36,000  Level Seattle Center
12:51PM 44.1242 -119.0244 338° Northwest 437 503 36,000  Level Seattle Center
12:52PM 44.2372 -119.0858 339° North 437 503 36,000  Level Seattle Center
12:53PM 44.3478 -119.1483 338° Northwest 431 496 36,000  Level Seattle Center
12:54PM 44.4589 -119.2111 338° Northwest 433 498 36,000  Level Seattle Center
12:55PM 44.5700 -119.2739 338° Northwest 433 498 36,000  Level Seattle Center
12:56PM 44.7036 -119.3481 338° Northwest 432 497 36,000  Level Seattle Center
12:57PM 44.8131 -119.4106 338° Northwest 429 494 36,000  Level Seattle Center
12:58PM 44.9228 -119.4739 338° Northwest 429 494 36,000  Level Seattle Center
12:59PM 45.0328 -119.5369 338° Northwest 432 497 36,000  Level Seattle Center
01:00PM 45.1425 -119.6003 338° Northwest 432 497 36,000  Level Seattle Center
01:02PM 45.2525 -119.6650 338° Northwest 432 497 36,000  Level Seattle Center
01:03PM 45.3639 -119.7278 338° Northwest 433 498 36,000  Level Seattle Center
01:04PM 45.4747 -119.7933 337° Northwest 435 501 36,000  Level Seattle Center
01:05PM 45.6083 -119.8703 338° Northwest 435 501 36,000  Level Seattle Center
01:06PM 45.7189 -119.9350 338° Northwest 432 497 36,000  Level Seattle Center
01:07PM 45.8253 -120.0122 333° Northwest 430 495 36,000  Level Seattle Center
01:08PM 45.9258 -120.1081 326° Northwest 433 498 36,000  Level Seattle Center
01:09PM 46.0275 -120.2025 327° Northwest 438 504 36,000  Level Seattle Center
01:10PM 46.1289 -120.2983 327° Northwest 437 503 36,000  Level Seattle Center
01:11PM 46.2311 -120.3953 327° Northwest 440 506 36,000 -60 Level Seattle Center
01:12PM 46.3300 -120.4897 327° Northwest 430 495 35,900 -1,740 Descending Seattle Center
01:13PM 46.4319 -120.5861 327° Northwest 435 501 32,500 -2,520 Descending Seattle Center
01:14PM 46.5550 -120.7075 326° Northwest 446 513 30,800 -1,620 Descending Seattle Center
01:15PM 46.6597 -120.8044 328° Northwest 448 516 29,200 -1,860 Descending Seattle Center
01:16PM 46.7525 -120.9136 321° Northwest 429 494 27,100 -2,100 Descending Seattle Center
01:17PM 46.8239 -121.0469 308° West 420 483 25,000 -2,280 Descending Seattle Center
01:18PM 46.8928 -121.1747 308° West 407 468 22,500 -2,400 Descending Seattle Center
01:19PM 46.9575 -121.2975 308° West 390 449 20,200 -2,400 Descending Seattle Center
01:20PM 47.0292 -121.4331 308° West 383 441 17,700 -2,100 Descending Seattle Center
01:21PM 47.0900 -121.5522 307° West 367 422 16,000 -1,080 Descending Seattle Center
01:22PM 47.1436 -121.6694 304° West 340 391 15,500 -840 Descending Seattle Center
01:23PM 47.1994 -121.7883 305° West 330 380 14,400 -1,020 Descending Seattle Center
01:24PM 47.2611 -121.9256 304° West 325 374 13,200 -1,080 Descending Seattle Center
01:25PM 47.2989 -122.0075 304° West 320 368 12,300 -1,500 Descending Seattle Center
01:26PM 47.3542 -122.1325 303° West 314 361 10,300 -1,140 Descending Seattle Center
01:27PM 47.4200 -122.1811 333° Northwest 272 313 9,900 -960 Descending Seattle Center
01:28PM 47.4983 -122.1739 North 261 300 8,400 -1,440 Descending Seattle Center
01:29PM 47.5600 -122.1692 North 265 305 7,200 -1,500 Descending Seattle Center
01:30PM 47.6431 -122.1664 North 278 320 5,500 -1,380 Descending Seattle Center
01:31PM 47.6731 -122.2531 297° West 269 310 4,400 -1,200 Descending Seattle Center
01:32PM 47.6308 -122.3264 230° Southwest 268 308 3,100 -720 Descending Seattle Center
01:33PM 47.5683 -122.3169 174° South 215 247 3,000 -780 Descending Seattle Center
01:34PM 47.5175 -122.3175 180° South 171 197 1,600 -1,140 Descending Seattle Center
01:35PM 47.4775 -122.3197 182° South 140 161 800 -600 Descending Seattle Center
01:36PM 47.4397 -122.3189 179° South 140 161 400 -420 Descending Seattle Center
01:38PM 47.4333 -122.3000 176° South  Level FlightAware Approximate